Carnival Liberty — HPYE — position and weather

sailwx.info

Track history (hours):
 
Tides and Currents Weather Stations Pressure Air Temp Water Temp Dewpoint Dewpoint Depression Visibility Wind Speed Wind Dir Waves Ship Positions

Carnival Liberty

Last reported at 2015-Jul-30 22:34 UTC. Time now 2015-Jul-30 23:06 UTC.
Position N 16°45' W 062°02'.

Type: Ship. MMSI: 371083000.

Date/timePositionNaut miles runAvg speedWind from/ knotsBaromVisibWave heightAir tempDewpointWater temp
2015-Jul-30 22:34N 16°45' W 062°02'1716.5
2015-Jul-30 21:33N 17°01' W 062°01'1110.6
2015-Jul-30 20:34N 17°08' W 061°52'1 1.4
2015-Jul-30 19:33N 17°07' W 061°51'0 0.0
2015-Jul-30 18:32N 17°07' W 061°51'0 0.0
2015-Jul-30 17:32N 17°07' W 061°51'0 0.0
2015-Jul-30 16:31N 17°07' W 061°51'0 0.0
2015-Jul-30 15:31N 17°07' W 061°51'0 0.0
2015-Jul-30 14:31N 17°07' W 061°51'0 0.0
2015-Jul-30 13:33N 17°07' W 061°51'0 0.0
2015-Jul-30 12:33N 17°07' W 061°51'1 0.6
2015-Jul-30 11:33N 17°07' W 061°51'8 8.0
2015-Jul-30 10:34N 17°12' W 061°58'10 9.6
2015-Jul-30 09:33N 17°19' W 062°05'9 9.2
2015-Jul-30 08:34N 17°27' W 062°10'9 9.3
2015-Jul-30 07:34N 17°35' W 062°15'9 9.3
2015-Jul-30 06:34N 17°43' W 062°20'30 8.8
2015-Jul-30 03:06N 17°41' W 062°52'5 9.0
2015-Jul-30 02:32N 17°43' W 062°57'9 9.0
2015-Jul-30 01:33N 17°50' W 063°02'10 9.6
2015-Jul-30 00:33N 17°59' W 063°06'4 3.4
2015-Jul-29 23:27N 18°01' W 063°03'0 0.0
2015-Jul-29 22:14N 18°01' W 063°03'0 0.0
2015-Jul-29 20:19N 18°01' W 063°03'0 0.0
2015-Jul-29 16:06N 18°01' W 063°03'0 0.1
2015-Jul-29 15:33N 18°01' W 063°03'9 9.2
2015-Jul-29 14:33N 18°01' W 063°12'1413.3
2015-Jul-29 13:32N 18°00' W 063°27'1414.9
2015-Jul-29 12:33N 17°58' W 063°42'  
2015-Jul-26 03:33N 18°10' W 064°54'6017.5
2015-Jul-26 00:09N 18°03' W 063°52'1017.6
2015-Jul-25 23:33N 18°02' W 063°41'1817.6
2015-Jul-25 22:33N 18°01' W 063°22'1717.0
2015-Jul-25 21:33N 18°00' W 063°04'2 1.3
2015-Jul-25 20:21N 18°01' W 063°03'0 0.0
2015-Jul-25 16:31N 18°01' W 063°03'0 0.0
2015-Jul-25 11:08N 18°01' W 063°03'0 0.0
2015-Jul-25 10:33N 18°01' W 063°03'7 6.8
2015-Jul-25 09:33N 18°01' W 063°10'1110.4
2015-Jul-25 08:31N 18°03' W 063°21'1010.0
2015-Jul-25 07:32N 18°07' W 063°30'9 9.5
2015-Jul-25 06:33N 18°10' W 063°40'8 8.0
2015-Jul-25 05:33N 18°03' W 063°41'9 8.2
2015-Jul-25 04:29N 17°59' W 063°32'8 9.0
2015-Jul-25 03:33N 17°58' W 063°24'10 9.7
2015-Jul-25 02:32N 17°51' W 063°16'9 9.5
2015-Jul-25 01:33N 17°45' W 063°09'10 9.5
2015-Jul-25 00:33N 17°36' W 063°06'69 4.1
2015-Jul-24 07:33N 16°37' W 062°29'11117.5
2015-Jul-24 01:13N 14°58' W 061°37'1217.8
2015-Jul-24 00:33N 14°47' W 061°31'1818.4
2015-Jul-23 23:33N 14°31' W 061°23'1818.3
2015-Jul-23 22:34N 14°14' W 061°14'2015.5
2015-Jul-23 21:18N 14°01' W 060°60'0 0.0
2015-Jul-23 20:24N 14°01' W 060°60'0 0.0
2015-Jul-23 19:32N 14°01' W 060°60'0 0.0
2015-Jul-23 18:29N 14°01' W 060°60'0 0.0
2015-Jul-23 17:28N 14°01' W 060°60'0 0.0
2015-Jul-23 16:28N 14°01' W 060°60'0 0.0
2015-Jul-23 15:27N 14°01' W 060°60'0 0.0
2015-Jul-23 14:33N 14°01' W 060°60'0 0.0
2015-Jul-23 13:33N 14°01' W 060°60'0 0.0
2015-Jul-23 12:32N 14°01' W 060°60'0 0.0
2015-Jul-23 11:34N 14°01' W 060°60'5 5.2
2015-Jul-23 10:33N 14°01' W 061°05'10 9.6
2015-Jul-23 09:33N 13°57' W 061°14'33 1.0
2015-Jul-22 01:17N 14°12' W 060°43'7 8.9
2015-Jul-22 00:33N 14°13' W 060°50'9 9.2
2015-Jul-21 23:33N 14°14' W 060°59'9 9.4
2015-Jul-21 22:33N 14°15' W 061°09'9 9.3
2015-Jul-21 21:33N 14°18' W 061°18'9 9.4
2015-Jul-21 20:33N 14°26' W 061°24'9 8.9
2015-Jul-21 19:33N 14°33' W 061°29'9 9.1
2015-Jul-21 18:33N 14°40' W 061°35'9 9.4
2015-Jul-21 17:33N 14°47' W 061°41'22813.9
2015-Jul-21 01:07N 17°43' W 064°14'2715.8
2015-Jul-20 23:23N 18°01' W 064°35'  
Track history (hours):
 
Tides and Currents Weather Stations Pressure Air Temp Water Temp Dewpoint Dewpoint Depression Visibility Wind Speed Wind Dir Waves Ship Positions

Carnival Liberty

Last reported at 2015-Jul-30 22:34 UTC. Time now 2015-Jul-30 23:06 UTC.
Position N 16°45' W 062°02'.

Type: Ship. MMSI: 371083000.

Date/timePositionNaut miles runAvg speedWind from/ knotsBaromVisibWave heightAir tempDewpointWater temp
2015-Jul-30 22:34N 16°45' W 062°02'1716.5
2015-Jul-30 21:33N 17°01' W 062°01'1110.6
2015-Jul-30 20:34N 17°08' W 061°52'1 1.4
2015-Jul-30 19:33N 17°07' W 061°51'0 0.0
2015-Jul-30 18:32N 17°07' W 061°51'0 0.0
2015-Jul-30 17:32N 17°07' W 061°51'0 0.0
2015-Jul-30 16:31N 17°07' W 061°51'0 0.0
2015-Jul-30 15:31N 17°07' W 061°51'0 0.0
2015-Jul-30 14:31N 17°07' W 061°51'0 0.0
2015-Jul-30 13:33N 17°07' W 061°51'0 0.0
2015-Jul-30 12:33N 17°07' W 061°51'1 0.6
2015-Jul-30 11:33N 17°07' W 061°51'8 8.0
2015-Jul-30 10:34N 17°12' W 061°58'10 9.6
2015-Jul-30 09:33N 17°19' W 062°05'9 9.2
2015-Jul-30 08:34N 17°27' W 062°10'9 9.3
2015-Jul-30 07:34N 17°35' W 062°15'9 9.3
2015-Jul-30 06:34N 17°43' W 062°20'30 8.8
2015-Jul-30 03:06N 17°41' W 062°52'5 9.0
2015-Jul-30 02:32N 17°43' W 062°57'9 9.0
2015-Jul-30 01:33N 17°50' W 063°02'10 9.6
2015-Jul-30 00:33N 17°59' W 063°06'4 3.4
2015-Jul-29 23:27N 18°01' W 063°03'0 0.0
2015-Jul-29 22:14N 18°01' W 063°03'0 0.0
2015-Jul-29 20:19N 18°01' W 063°03'0 0.0
2015-Jul-29 16:06N 18°01' W 063°03'0 0.1
2015-Jul-29 15:33N 18°01' W 063°03'9 9.2
2015-Jul-29 14:33N 18°01' W 063°12'1413.3
2015-Jul-29 13:32N 18°00' W 063°27'1414.9
2015-Jul-29 12:33N 17°58' W 063°42'  
2015-Jul-26 03:33N 18°10' W 064°54'6017.5
2015-Jul-26 00:09N 18°03' W 063°52'1017.6
2015-Jul-25 23:33N 18°02' W 063°41'1817.6
2015-Jul-25 22:33N 18°01' W 063°22'1717.0
2015-Jul-25 21:33N 18°00' W 063°04'2 1.3
2015-Jul-25 20:21N 18°01' W 063°03'0 0.0
2015-Jul-25 16:31N 18°01' W 063°03'0 0.0
2015-Jul-25 11:08N 18°01' W 063°03'0 0.0
2015-Jul-25 10:33N 18°01' W 063°03'7 6.8
2015-Jul-25 09:33N 18°01' W 063°10'1110.4
2015-Jul-25 08:31N 18°03' W 063°21'1010.0
2015-Jul-25 07:32N 18°07' W 063°30'9 9.5
2015-Jul-25 06:33N 18°10' W 063°40'8 8.0
2015-Jul-25 05:33N 18°03' W 063°41'9 8.2
2015-Jul-25 04:29N 17°59' W 063°32'8 9.0
2015-Jul-25 03:33N 17°58' W 063°24'10 9.7
2015-Jul-25 02:32N 17°51' W 063°16'9 9.5
2015-Jul-25 01:33N 17°45' W 063°09'10 9.5
2015-Jul-25 00:33N 17°36' W 063°06'69 4.1
2015-Jul-24 07:33N 16°37' W 062°29'11117.5
2015-Jul-24 01:13N 14°58' W 061°37'1217.8
2015-Jul-24 00:33N 14°47' W 061°31'1818.4
2015-Jul-23 23:33N 14°31' W 061°23'1818.3
2015-Jul-23 22:34N 14°14' W 061°14'2015.5
2015-Jul-23 21:18N 14°01' W 060°60'0 0.0
2015-Jul-23 20:24N 14°01' W 060°60'0 0.0
2015-Jul-23 19:32N 14°01' W 060°60'0 0.0
2015-Jul-23 18:29N 14°01' W 060°60'0 0.0
2015-Jul-23 17:28N 14°01' W 060°60'0 0.0
2015-Jul-23 16:28N 14°01' W 060°60'0 0.0
2015-Jul-23 15:27N 14°01' W 060°60'0 0.0
2015-Jul-23 14:33N 14°01' W 060°60'0 0.0
2015-Jul-23 13:33N 14°01' W 060°60'0 0.0
2015-Jul-23 12:32N 14°01' W 060°60'0 0.0
2015-Jul-23 11:34N 14°01' W 060°60'5 5.2
2015-Jul-23 10:33N 14°01' W 061°05'10 9.6
2015-Jul-23 09:33N 13°57' W 061°14'33 1.0
2015-Jul-22 01:17N 14°12' W 060°43'7 8.9
2015-Jul-22 00:33N 14°13' W 060°50'9 9.2
2015-Jul-21 23:33N 14°14' W 060°59'9 9.4
2015-Jul-21 22:33N 14°15' W 061°09'9 9.3
2015-Jul-21 21:33N 14°18' W 061°18'9 9.4
2015-Jul-21 20:33N 14°26' W 061°24'9 8.9
2015-Jul-21 19:33N 14°33' W 061°29'9 9.1
2015-Jul-21 18:33N 14°40' W 061°35'9 9.4
2015-Jul-21 17:33N 14°47' W 061°41'22813.9
2015-Jul-21 01:07N 17°43' W 064°14'2715.8
2015-Jul-20 23:23N 18°01' W 064°35'  

Dump ship's entire track history